sensor_id;sensor_type;location;lat;lon;timestamp;temperature;humidity
61253;DHT22;47127;47.516;8.596;2023-03-31T00:00:51;12.70;99.90
61253;DHT22;47127;47.516;8.596;2023-03-31T00:03:17;12.60;99.90
61253;DHT22;47127;47.516;8.596;2023-03-31T00:05:53;12.50;99.90
61253;DHT22;47127;47.516;8.596;2023-03-31T00:08:19;12.50;99.90
61253;DHT22;47127;47.516;8.596;2023-03-31T00:10:46;12.50;99.90
61253;DHT22;47127;47.516;8.596;2023-03-31T00:13:12;12.50;99.90
61253;DHT22;47127;47.516;8.596;2023-03-31T00:15:38;12.50;99.90
61253;DHT22;47127;47.516;8.596;2023-03-31T00:18:04;12.50;99.90
61253;DHT22;47127;47.516;8.596;2023-03-31T00:20:30;12.60;99.90
61253;DHT22;47127;47.516;8.596;2023-03-31T00:22:58;12.60;99.90
61253;DHT22;47127;47.516;8.596;2023-03-31T00:25:26;12.50;99.90
61253;DHT22;47127;47.516;8.596;2023-03-31T00:27:52;12.50;99.90
61253;DHT22;47127;47.516;8.596;2023-03-31T00:30:19;12.50;99.90
61253;DHT22;47127;47.516;8.596;2023-03-31T00:32:45;12.50;99.90
61253;DHT22;47127;47.516;8.596;2023-03-31T00:35:11;12.50;99.90
61253;DHT22;47127;47.516;8.596;2023-03-31T00:37:37;12.40;99.90
61253;DHT22;47127;47.516;8.596;2023-03-31T00:40:03;12.40;99.90
61253;DHT22;47127;47.516;8.596;2023-03-31T00:42:41;12.40;99.90
61253;DHT22;47127;47.516;8.596;2023-03-31T00:47:40;12.40;99.90
61253;DHT22;47127;47.516;8.596;2023-03-31T00:50:14;12.40;99.90
61253;DHT22;47127;47.516;8.596;2023-03-31T00:52:44;12.40;99.90
61253;DHT22;47127;47.516;8.596;2023-03-31T00:55:24;12.40;99.90
61253;DHT22;47127;47.516;8.596;2023-03-31T00:57:51;12.30;99.90
61253;DHT22;47127;47.516;8.596;2023-03-31T01:00:20;12.20;99.90
61253;DHT22;47127;47.516;8.596;2023-03-31T01:02:53;12.20;99.90
61253;DHT22;47127;47.516;8.596;2023-03-31T01:05:25;12.20;99.90
61253;DHT22;47127;47.516;8.596;2023-03-31T01:07:52;12.30;99.90
61253;DHT22;47127;47.516;8.596;2023-03-31T01:10:18;12.30;99.90
61253;DHT22;47127;47.516;8.596;2023-03-31T01:12:47;12.20;99.90
61253;DHT22;47127;47.516;8.596;2023-03-31T01:15:13;12.00;99.90
61253;DHT22;47127;47.516;8.596;2023-03-31T01:17:40;11.90;99.90
61253;DHT22;47127;47.516;8.596;2023-03-31T01:46:09;11.50;99.90
61253;DHT22;47127;47.516;8.596;2023-03-31T01:49:23;11.40;99.90
61253;DHT22;47127;47.516;8.596;2023-03-31T01:52:03;11.40;99.90
61253;DHT22;47127;47.516;8.596;2023-03-31T01:57:14;11.50;99.90
61253;DHT22;47127;47.516;8.596;2023-03-31T01:59:47;11.40;99.90
61253;DHT22;47127;47.516;8.596;2023-03-31T02:02:31;11.60;99.90
61253;DHT22;47127;47.516;8.596;2023-03-31T02:05:11;11.60;99.90
61253;DHT22;47127;47.516;8.596;2023-03-31T02:07:55;11.60;99.90
61253;DHT22;47127;47.516;8.596;2023-03-31T02:10:23;11.70;99.90
61253;DHT22;47127;47.516;8.596;2023-03-31T02:12:50;11.70;99.90
61253;DHT22;47127;47.516;8.596;2023-03-31T02:15:23;11.70;99.90
61253;DHT22;47127;47.516;8.596;2023-03-31T02:17:55;11.70;99.90
61253;DHT22;47127;47.516;8.596;2023-03-31T02:20:23;11.70;99.90
61253;DHT22;47127;47.516;8.596;2023-03-31T02:22:53;11.50;99.90
61253;DHT22;47127;47.516;8.596;2023-03-31T02:25:24;11.40;99.90
61253;DHT22;47127;47.516;8.596;2023-03-31T02:27:56;11.20;99.90
61253;DHT22;47127;47.516;8.596;2023-03-31T02:30:28;11.10;99.90
61253;DHT22;47127;47.516;8.596;2023-03-31T02:32:56;11.10;99.90
61253;DHT22;47127;47.516;8.596;2023-03-31T02:35:22;11.10;99.90
61253;DHT22;47127;47.516;8.596;2023-03-31T02:37:49;11.20;99.90
61253;DHT22;47127;47.516;8.596;2023-03-31T02:40:18;11.40;99.90
61253;DHT22;47127;47.516;8.596;2023-03-31T02:42:45;11.30;99.90
61253;DHT22;47127;47.516;8.596;2023-03-31T02:45:40;11.30;99.90
61253;DHT22;47127;47.516;8.596;2023-03-31T02:48:10;11.30;99.90
61253;DHT22;47127;47.516;8.596;2023-03-31T03:07:04;11.20;99.90
61253;DHT22;47127;47.516;8.596;2023-03-31T03:17:40;11.20;99.90
61253;DHT22;47127;47.516;8.596;2023-03-31T03:20:07;11.20;99.90
61253;DHT22;47127;47.516;8.596;2023-03-31T03:22:35;11.10;99.90
61253;DHT22;47127;47.516;8.596;2023-03-31T03:25:02;11.10;99.90
61253;DHT22;47127;47.516;8.596;2023-03-31T03:27:28;11.20;99.90
61253;DHT22;47127;47.516;8.596;2023-03-31T03:29:54;11.30;99.90
61253;DHT22;47127;47.516;8.596;2023-03-31T03:32:20;11.30;99.90
61253;DHT22;47127;47.516;8.596;2023-03-31T03:34:46;11.40;99.90
61253;DHT22;47127;47.516;8.596;2023-03-31T03:37:12;11.40;99.90
61253;DHT22;47127;47.516;8.596;2023-03-31T03:39:37;11.40;99.90
61253;DHT22;47127;47.516;8.596;2023-03-31T03:42:03;11.50;99.90
61253;DHT22;47127;47.516;8.596;2023-03-31T03:44:30;11.50;99.90
61253;DHT22;47127;47.516;8.596;2023-03-31T03:46:56;11.40;99.90
61253;DHT22;47127;47.516;8.596;2023-03-31T03:49:23;11.30;99.90
61253;DHT22;47127;47.516;8.596;2023-03-31T03:51:48;11.20;99.90
61253;DHT22;47127;47.516;8.596;2023-03-31T03:54:15;11.30;99.90
61253;DHT22;47127;47.516;8.596;2023-03-31T03:56:40;11.30;99.90
61253;DHT22;47127;47.516;8.596;2023-03-31T03:59:06;11.30;99.90
61253;DHT22;47127;47.516;8.596;2023-03-31T04:01:31;11.30;99.90
61253;DHT22;47127;47.516;8.596;2023-03-31T04:03:57;11.30;99.90
61253;DHT22;47127;47.516;8.596;2023-03-31T04:06:23;11.30;99.90
61253;DHT22;47127;47.516;8.596;2023-03-31T04:08:48;11.30;99.90
61253;DHT22;47127;47.516;8.596;2023-03-31T04:11:16;11.30;99.90
61253;DHT22;47127;47.516;8.596;2023-03-31T04:13:43;11.30;99.90
61253;DHT22;47127;47.516;8.596;2023-03-31T04:16:09;11.30;99.90
61253;DHT22;47127;47.516;8.596;2023-03-31T04:18:34;11.30;99.90
61253;DHT22;47127;47.516;8.596;2023-03-31T04:21:02;11.30;99.90
61253;DHT22;47127;47.516;8.596;2023-03-31T04:23:35;11.30;99.90
61253;DHT22;47127;47.516;8.596;2023-03-31T04:26:07;11.30;99.90
61253;DHT22;47127;47.516;8.596;2023-03-31T04:28:34;11.30;99.90
61253;DHT22;47127;47.516;8.596;2023-03-31T04:31:01;11.30;99.90
61253;DHT22;47127;47.516;8.596;2023-03-31T04:33:27;11.40;99.90
61253;DHT22;47127;47.516;8.596;2023-03-31T04:35:53;11.40;99.90
61253;DHT22;47127;47.516;8.596;2023-03-31T04:38:21;11.50;99.90
61253;DHT22;47127;47.516;8.596;2023-03-31T04:40:49;11.40;99.90
61253;DHT22;47127;47.516;8.596;2023-03-31T04:43:15;11.50;99.90
61253;DHT22;47127;47.516;8.596;2023-03-31T04:45:41;11.60;99.90
61253;DHT22;47127;47.516;8.596;2023-03-31T04:48:08;11.60;99.90
61253;DHT22;47127;47.516;8.596;2023-03-31T04:50:34;11.60;99.90
61253;DHT22;47127;47.516;8.596;2023-03-31T04:53:00;11.50;99.90
61253;DHT22;47127;47.516;8.596;2023-03-31T04:55:25;11.40;99.90
61253;DHT22;47127;47.516;8.596;2023-03-31T04:57:52;11.30;99.90
61253;DHT22;47127;47.516;8.596;2023-03-31T05:00:19;11.40;99.90
61253;DHT22;47127;47.516;8.596;2023-03-31T05:02:45;11.30;99.90
61253;DHT22;47127;47.516;8.596;2023-03-31T05:05:10;11.30;99.90
61253;DHT22;47127;47.516;8.596;2023-03-31T05:07:36;11.30;99.90
61253;DHT22;47127;47.516;8.596;2023-03-31T05:10:03;11.30;99.90
61253;DHT22;47127;47.516;8.596;2023-03-31T05:12:32;11.20;99.90
61253;DHT22;47127;47.516;8.596;2023-03-31T05:14:58;11.20;99.90
61253;DHT22;47127;47.516;8.596;2023-03-31T05:17:23;11.20;99.90
61253;DHT22;47127;47.516;8.596;2023-03-31T05:19:56;11.20;99.90
61253;DHT22;47127;47.516;8.596;2023-03-31T05:22:22;11.20;99.90
61253;DHT22;47127;47.516;8.596;2023-03-31T05:24:47;11.30;99.90
61253;DHT22;47127;47.516;8.596;2023-03-31T05:27:14;11.20;99.90
61253;DHT22;47127;47.516;8.596;2023-03-31T05:29:43;11.70;99.90
61253;DHT22;47127;47.516;8.596;2023-03-31T05:32:09;11.90;99.90
61253;DHT22;47127;47.516;8.596;2023-03-31T05:34:37;11.90;99.90
61253;DHT22;47127;47.516;8.596;2023-03-31T05:37:05;11.60;99.90
61253;DHT22;47127;47.516;8.596;2023-03-31T05:39:34;11.90;99.90
61253;DHT22;47127;47.516;8.596;2023-03-31T05:42:01;11.60;99.90
61253;DHT22;47127;47.516;8.596;2023-03-31T05:44:27;11.60;99.90
61253;DHT22;47127;47.516;8.596;2023-03-31T05:46:53;11.60;99.90
61253;DHT22;47127;47.516;8.596;2023-03-31T05:49:26;11.50;99.90
61253;DHT22;47127;47.516;8.596;2023-03-31T05:51:53;11.40;99.90
61253;DHT22;47127;47.516;8.596;2023-03-31T05:54:19;11.50;99.90
61253;DHT22;47127;47.516;8.596;2023-03-31T05:56:45;11.50;99.90
61253;DHT22;47127;47.516;8.596;2023-03-31T05:59:13;11.50;99.90
61253;DHT22;47127;47.516;8.596;2023-03-31T06:01:46;11.40;99.90
61253;DHT22;47127;47.516;8.596;2023-03-31T06:04:14;11.40;99.90
61253;DHT22;47127;47.516;8.596;2023-03-31T06:06:40;11.40;99.90
61253;DHT22;47127;47.516;8.596;2023-03-31T06:09:07;11.40;99.90
61253;DHT22;47127;47.516;8.596;2023-03-31T06:11:36;11.50;99.90
61253;DHT22;47127;47.516;8.596;2023-03-31T06:14:01;11.50;99.90
61253;DHT22;47127;47.516;8.596;2023-03-31T06:16:27;11.60;99.90
61253;DHT22;47127;47.516;8.596;2023-03-31T06:18:53;11.70;99.90
61253;DHT22;47127;47.516;8.596;2023-03-31T06:21:20;11.70;99.90
61253;DHT22;47127;47.516;8.596;2023-03-31T06:23:46;11.70;99.90
61253;DHT22;47127;47.516;8.596;2023-03-31T06:26:15;11.80;99.90
61253;DHT22;47127;47.516;8.596;2023-03-31T06:28:41;11.90;99.90
61253;DHT22;47127;47.516;8.596;2023-03-31T06:31:10;11.90;99.90
61253;DHT22;47127;47.516;8.596;2023-03-31T06:33:38;11.90;99.90
61253;DHT22;47127;47.516;8.596;2023-03-31T06:36:04;12.00;99.90
61253;DHT22;47127;47.516;8.596;2023-03-31T06:38:32;12.00;99.90
61253;DHT22;47127;47.516;8.596;2023-03-31T06:40:58;11.80;99.90
61253;DHT22;47127;47.516;8.596;2023-03-31T06:43:25;11.40;99.90
61253;DHT22;47127;47.516;8.596;2023-03-31T06:45:54;12.00;99.90
61253;DHT22;47127;47.516;8.596;2023-03-31T06:48:24;12.20;99.90
61253;DHT22;47127;47.516;8.596;2023-03-31T06:51:00;11.50;99.90
61253;DHT22;47127;47.516;8.596;2023-03-31T06:53:26;12.40;99.90
61253;DHT22;47127;47.516;8.596;2023-03-31T06:55:52;14.90;99.90
61253;DHT22;47127;47.516;8.596;2023-03-31T06:58:18;12.70;99.90
61253;DHT22;47127;47.516;8.596;2023-03-31T07:00:44;12.90;99.90
61253;DHT22;47127;47.516;8.596;2023-03-31T07:03:11;13.00;99.90
61253;DHT22;47127;47.516;8.596;2023-03-31T07:05:37;11.60;99.90
61253;DHT22;47127;47.516;8.596;2023-03-31T07:08:03;13.30;99.90
61253;DHT22;47127;47.516;8.596;2023-03-31T07:10:32;13.20;99.90
61253;DHT22;47127;47.516;8.596;2023-03-31T07:13:01;13.30;99.90
61253;DHT22;47127;47.516;8.596;2023-03-31T07:15:27;12.70;99.90
61253;DHT22;47127;47.516;8.596;2023-03-31T07:17:57;13.30;99.90
61253;DHT22;47127;47.516;8.596;2023-03-31T07:20:27;13.40;99.90
61253;DHT22;47127;47.516;8.596;2023-03-31T07:22:53;13.30;99.90
61253;DHT22;47127;47.516;8.596;2023-03-31T07:25:19;13.40;99.90
61253;DHT22;47127;47.516;8.596;2023-03-31T07:27:45;13.50;99.90
61253;DHT22;47127;47.516;8.596;2023-03-31T07:30:17;13.50;99.90
61253;DHT22;47127;47.516;8.596;2023-03-31T07:32:46;13.50;99.90
61253;DHT22;47127;47.516;8.596;2023-03-31T07:35:13;13.50;99.90
61253;DHT22;47127;47.516;8.596;2023-03-31T07:37:44;13.40;99.90
61253;DHT22;47127;47.516;8.596;2023-03-31T07:40:13;13.50;99.90
61253;DHT22;47127;47.516;8.596;2023-03-31T07:42:44;13.40;99.90
61253;DHT22;47127;47.516;8.596;2023-03-31T07:45:14;13.20;99.90
61253;DHT22;47127;47.516;8.596;2023-03-31T07:47:41;13.10;99.90
61253;DHT22;47127;47.516;8.596;2023-03-31T07:50:07;13.20;99.90
61253;DHT22;47127;47.516;8.596;2023-03-31T07:52:33;13.30;99.90
61253;DHT22;47127;47.516;8.596;2023-03-31T07:54:59;13.30;99.90
61253;DHT22;47127;47.516;8.596;2023-03-31T07:57:25;13.40;99.90
61253;DHT22;47127;47.516;8.596;2023-03-31T07:59:50;13.60;99.90
61253;DHT22;47127;47.516;8.596;2023-03-31T08:02:17;13.60;99.90
61253;DHT22;47127;47.516;8.596;2023-03-31T08:04:43;13.50;99.90
61253;DHT22;47127;47.516;8.596;2023-03-31T08:07:14;13.40;99.90
61253;DHT22;47127;47.516;8.596;2023-03-31T08:09:43;13.30;99.90
61253;DHT22;47127;47.516;8.596;2023-03-31T08:12:09;13.40;99.90
61253;DHT22;47127;47.516;8.596;2023-03-31T08:14:34;14.60;99.90
61253;DHT22;47127;47.516;8.596;2023-03-31T08:17:00;13.50;99.90
61253;DHT22;47127;47.516;8.596;2023-03-31T08:19:26;13.60;99.90
61253;DHT22;47127;47.516;8.596;2023-03-31T08:21:52;13.50;99.90
61253;DHT22;47127;47.516;8.596;2023-03-31T08:24:19;13.40;99.90
61253;DHT22;47127;47.516;8.596;2023-03-31T08:26:45;13.30;99.90
61253;DHT22;47127;47.516;8.596;2023-03-31T08:29:11;13.30;99.90
61253;DHT22;47127;47.516;8.596;2023-03-31T08:31:37;13.40;99.90
61253;DHT22;47127;47.516;8.596;2023-03-31T08:34:03;13.70;99.90
61253;DHT22;47127;47.516;8.596;2023-03-31T08:36:29;13.80;99.90
61253;DHT22;47127;47.516;8.596;2023-03-31T08:38:55;13.80;99.90
61253;DHT22;47127;47.516;8.596;2023-03-31T08:43:59;14.00;99.90
61253;DHT22;47127;47.516;8.596;2023-03-31T08:46:27;13.90;99.90
61253;DHT22;47127;47.516;8.596;2023-03-31T08:48:56;13.90;99.90
61253;DHT22;47127;47.516;8.596;2023-03-31T08:51:28;13.80;99.90
61253;DHT22;47127;47.516;8.596;2023-03-31T08:56:22;13.70;99.90
61253;DHT22;47127;47.516;8.596;2023-03-31T08:58:50;13.80;99.90
61253;DHT22;47127;47.516;8.596;2023-03-31T09:01:41;13.90;99.90
61253;DHT22;47127;47.516;8.596;2023-03-31T09:15:23;14.20;99.90
61253;DHT22;47127;47.516;8.596;2023-03-31T09:17:50;14.20;99.90
61253;DHT22;47127;47.516;8.596;2023-03-31T09:20:24;14.10;99.90
61253;DHT22;47127;47.516;8.596;2023-03-31T09:25:45;13.60;99.90
61253;DHT22;47127;47.516;8.596;2023-03-31T09:28:19;13.60;99.90
61253;DHT22;47127;47.516;8.596;2023-03-31T09:30:46;13.70;99.90
61253;DHT22;47127;47.516;8.596;2023-03-31T09:33:26;13.70;99.90
61253;DHT22;47127;47.516;8.596;2023-03-31T09:36:04;13.60;99.90
61253;DHT22;47127;47.516;8.596;2023-03-31T09:38:31;13.60;99.90
61253;DHT22;47127;47.516;8.596;2023-03-31T09:40:57;13.70;99.90
61253;DHT22;47127;47.516;8.596;2023-03-31T09:43:26;13.60;99.90
61253;DHT22;47127;47.516;8.596;2023-03-31T09:45:54;13.80;99.90
61253;DHT22;47127;47.516;8.596;2023-03-31T09:48:26;13.80;99.90
61253;DHT22;47127;47.516;8.596;2023-03-31T09:51:05;13.80;99.90
61253;DHT22;47127;47.516;8.596;2023-03-31T09:53:49;14.00;99.90
61253;DHT22;47127;47.516;8.596;2023-03-31T09:56:32;13.70;99.90
61253;DHT22;47127;47.516;8.596;2023-03-31T09:59:00;13.50;99.90
61253;DHT22;47127;47.516;8.596;2023-03-31T10:01:27;13.40;99.90
61253;DHT22;47127;47.516;8.596;2023-03-31T10:03:54;13.30;99.90
61253;DHT22;47127;47.516;8.596;2023-03-31T10:06:22;13.50;99.90
61253;DHT22;47127;47.516;8.596;2023-03-31T10:08:57;13.60;99.90
61253;DHT22;47127;47.516;8.596;2023-03-31T10:11:24;13.70;99.90
61253;DHT22;47127;47.516;8.596;2023-03-31T10:13:52;13.80;99.90
61253;DHT22;47127;47.516;8.596;2023-03-31T10:16:31;14.00;99.90
61253;DHT22;47127;47.516;8.596;2023-03-31T10:21:47;14.60;99.90
61253;DHT22;47127;47.516;8.596;2023-03-31T10:24:17;14.50;99.90
61253;DHT22;47127;47.516;8.596;2023-03-31T10:26:48;14.40;99.90
61253;DHT22;47127;47.516;8.596;2023-03-31T10:29:21;14.60;99.90
61253;DHT22;47127;47.516;8.596;2023-03-31T10:31:50;14.80;99.90
61253;DHT22;47127;47.516;8.596;2023-03-31T10:34:17;14.80;99.90
61253;DHT22;47127;47.516;8.596;2023-03-31T10:36:51;14.50;99.90
61253;DHT22;47127;47.516;8.596;2023-03-31T10:39:27;14.40;99.90
61253;DHT22;47127;47.516;8.596;2023-03-31T10:41:54;14.20;99.90
61253;DHT22;47127;47.516;8.596;2023-03-31T10:45:12;14.10;99.90
61253;DHT22;47127;47.516;8.596;2023-03-31T10:47:39;13.40;99.90
61253;DHT22;47127;47.516;8.596;2023-03-31T10:50:13;12.90;99.90
61253;DHT22;47127;47.516;8.596;2023-03-31T10:52:46;12.70;99.90
61253;DHT22;47127;47.516;8.596;2023-03-31T10:55:22;12.60;99.90
61253;DHT22;47127;47.516;8.596;2023-03-31T10:57:57;12.50;99.90
61253;DHT22;47127;47.516;8.596;2023-03-31T11:09:01;12.40;99.90
61253;DHT22;47127;47.516;8.596;2023-03-31T11:11:58;12.40;99.90
61253;DHT22;47127;47.516;8.596;2023-03-31T11:14:34;12.50;99.90
61253;DHT22;47127;47.516;8.596;2023-03-31T11:20:22;12.50;99.90
61253;DHT22;47127;47.516;8.596;2023-03-31T11:23:13;12.50;99.90
61253;DHT22;47127;47.516;8.596;2023-03-31T11:28:23;12.40;99.90
61253;DHT22;47127;47.516;8.596;2023-03-31T11:39:24;13.30;99.90
61253;DHT22;47127;47.516;8.596;2023-03-31T11:41:57;13.60;99.90
61253;DHT22;47127;47.516;8.596;2023-03-31T11:44:27;13.90;99.90
61253;DHT22;47127;47.516;8.596;2023-03-31T11:47:05;14.30;99.90
61253;DHT22;47127;47.516;8.596;2023-03-31T11:49:36;14.50;99.90
61253;DHT22;47127;47.516;8.596;2023-03-31T11:52:12;14.80;99.90
61253;DHT22;47127;47.516;8.596;2023-03-31T11:55:04;14.70;99.90
61253;DHT22;47127;47.516;8.596;2023-03-31T12:00:24;15.10;99.90
61253;DHT22;47127;47.516;8.596;2023-03-31T12:03:15;15.00;99.90
61253;DHT22;47127;47.516;8.596;2023-03-31T12:05:46;15.20;99.90
61253;DHT22;47127;47.516;8.596;2023-03-31T12:08:35;14.90;99.90
61253;DHT22;47127;47.516;8.596;2023-03-31T12:16:18;14.40;99.60
61253;DHT22;47127;47.516;8.596;2023-03-31T12:18:59;14.30;99.70
61253;DHT22;47127;47.516;8.596;2023-03-31T12:21:28;13.70;97.50
61253;DHT22;47127;47.516;8.596;2023-03-31T12:23:54;13.10;99.90
61253;DHT22;47127;47.516;8.596;2023-03-31T12:29:21;12.90;98.20
61253;DHT22;47127;47.516;8.596;2023-03-31T12:31:50;12.60;98.20
61253;DHT22;47127;47.516;8.596;2023-03-31T12:34:21;12.50;98.20
61253;DHT22;47127;47.516;8.596;2023-03-31T12:51:00;13.40;97.40
61253;DHT22;47127;47.516;8.596;2023-03-31T12:56:21;13.50;99.30
61253;DHT22;47127;47.516;8.596;2023-03-31T12:58:47;13.60;98.60
61253;DHT22;47127;47.516;8.596;2023-03-31T13:01:20;13.60;97.40
61253;DHT22;47127;47.516;8.596;2023-03-31T13:03:50;13.50;98.20
61253;DHT22;47127;47.516;8.596;2023-03-31T13:09:01;13.90;98.80
61253;DHT22;47127;47.516;8.596;2023-03-31T13:11:34;14.10;99.90
61253;DHT22;47127;47.516;8.596;2023-03-31T13:14:18;13.80;98.50
61253;DHT22;47127;47.516;8.596;2023-03-31T13:16:44;13.60;98.80
61253;DHT22;47127;47.516;8.596;2023-03-31T13:21:58;13.60;99.90
61253;DHT22;47127;47.516;8.596;2023-03-31T13:24:30;13.70;99.90
61253;DHT22;47127;47.516;8.596;2023-03-31T13:26:58;13.60;99.10
61253;DHT22;47127;47.516;8.596;2023-03-31T13:29:38;13.60;99.50
61253;DHT22;47127;47.516;8.596;2023-03-31T13:32:24;13.50;99.90
61253;DHT22;47127;47.516;8.596;2023-03-31T13:35:05;13.70;99.90
61253;DHT22;47127;47.516;8.596;2023-03-31T13:40:33;13.60;99.50
61253;DHT22;47127;47.516;8.596;2023-03-31T13:46:31;13.70;99.90
61253;DHT22;47127;47.516;8.596;2023-03-31T13:49:52;13.80;99.90
61253;DHT22;47127;47.516;8.596;2023-03-31T13:52:01;13.60;99.90
61253;DHT22;47127;47.516;8.596;2023-03-31T14:00:23;13.20;99.90
61253;DHT22;47127;47.516;8.596;2023-03-31T14:11:27;13.60;99.90
61253;DHT22;47127;47.516;8.596;2023-03-31T14:14:05;13.80;99.90
61253;DHT22;47127;47.516;8.596;2023-03-31T14:16:39;14.30;99.90
61253;DHT22;47127;47.516;8.596;2023-03-31T14:19:36;14.60;99.90
61253;DHT22;47127;47.516;8.596;2023-03-31T14:30:28;15.10;96.50
61253;DHT22;47127;47.516;8.596;2023-03-31T14:36:04;15.00;93.90
61253;DHT22;47127;47.516;8.596;2023-03-31T14:38:32;15.30;92.40
61253;DHT22;47127;47.516;8.596;2023-03-31T14:40:59;15.50;90.50
61253;DHT22;47127;47.516;8.596;2023-03-31T14:43:38;15.50;90.10
61253;DHT22;47127;47.516;8.596;2023-03-31T14:46:08;15.40;87.40
61253;DHT22;47127;47.516;8.596;2023-03-31T14:48:44;15.10;87.50
61253;DHT22;47127;47.516;8.596;2023-03-31T14:51:13;15.00;91.30
61253;DHT22;47127;47.516;8.596;2023-03-31T14:53:39;14.70;92.50
61253;DHT22;47127;47.516;8.596;2023-03-31T14:56:09;14.40;93.30
61253;DHT22;47127;47.516;8.596;2023-03-31T14:58:40;12.60;98.00
61253;DHT22;47127;47.516;8.596;2023-03-31T15:01:08;11.20;99.90
61253;DHT22;47127;47.516;8.596;2023-03-31T15:03:39;10.30;99.90
61253;DHT22;47127;47.516;8.596;2023-03-31T15:06:06;10.30;99.90
61253;DHT22;47127;47.516;8.596;2023-03-31T15:08:34;10.00;99.90
61253;DHT22;47127;47.516;8.596;2023-03-31T15:11:07;9.90;99.90
61253;DHT22;47127;47.516;8.596;2023-03-31T15:15:59;10.00;99.90
61253;DHT22;47127;47.516;8.596;2023-03-31T15:18:28;10.20;99.90
61253;DHT22;47127;47.516;8.596;2023-03-31T15:20:54;10.30;99.90
61253;DHT22;47127;47.516;8.596;2023-03-31T15:23:25;10.50;99.90
61253;DHT22;47127;47.516;8.596;2023-03-31T15:28:20;11.00;99.90
61253;DHT22;47127;47.516;8.596;2023-03-31T15:30:48;11.30;99.90
61253;DHT22;47127;47.516;8.596;2023-03-31T15:33:30;11.60;99.90
61253;DHT22;47127;47.516;8.596;2023-03-31T15:35:57;11.50;99.90
61253;DHT22;47127;47.516;8.596;2023-03-31T15:38:25;11.50;99.90
61253;DHT22;47127;47.516;8.596;2023-03-31T15:40:54;11.40;99.90
61253;DHT22;47127;47.516;8.596;2023-03-31T15:44:02;11.30;99.90
61253;DHT22;47127;47.516;8.596;2023-03-31T15:49:04;11.40;99.90
61253;DHT22;47127;47.516;8.596;2023-03-31T15:51:35;11.20;99.90
61253;DHT22;47127;47.516;8.596;2023-03-31T15:54:02;11.00;99.90
61253;DHT22;47127;47.516;8.596;2023-03-31T15:56:43;11.10;99.90
61253;DHT22;47127;47.516;8.596;2023-03-31T15:59:26;11.00;99.90
61253;DHT22;47127;47.516;8.596;2023-03-31T16:01:53;10.60;99.90
61253;DHT22;47127;47.516;8.596;2023-03-31T16:04:20;10.30;99.90
61253;DHT22;47127;47.516;8.596;2023-03-31T16:06:57;10.30;99.90
61253;DHT22;47127;47.516;8.596;2023-03-31T16:09:44;10.10;99.90
61253;DHT22;47127;47.516;8.596;2023-03-31T16:14:56;10.20;99.90
61253;DHT22;47127;47.516;8.596;2023-03-31T16:17:40;10.10;99.90
61253;DHT22;47127;47.516;8.596;2023-03-31T16:20:26;10.10;99.90
61253;DHT22;47127;47.516;8.596;2023-03-31T16:22:57;10.30;99.90
61253;DHT22;47127;47.516;8.596;2023-03-31T16:25:25;10.40;99.90
61253;DHT22;47127;47.516;8.596;2023-03-31T16:27:55;10.90;99.90
61253;DHT22;47127;47.516;8.596;2023-03-31T16:30:34;10.40;99.90
61253;DHT22;47127;47.516;8.596;2023-03-31T16:33:03;10.40;99.90
61253;DHT22;47127;47.516;8.596;2023-03-31T16:37:59;10.40;99.90
61253;DHT22;47127;47.516;8.596;2023-03-31T16:40:29;10.30;99.90
61253;DHT22;47127;47.516;8.596;2023-03-31T16:43:17;10.30;99.90
61253;DHT22;47127;47.516;8.596;2023-03-31T16:45:48;10.30;99.90
61253;DHT22;47127;47.516;8.596;2023-03-31T16:48:15;10.40;99.90
61253;DHT22;47127;47.516;8.596;2023-03-31T16:50:42;10.50;99.90
61253;DHT22;47127;47.516;8.596;2023-03-31T16:53:08;10.50;99.90
61253;DHT22;47127;47.516;8.596;2023-03-31T16:55:35;10.50;99.90
61253;DHT22;47127;47.516;8.596;2023-03-31T16:58:00;10.50;99.90
61253;DHT22;47127;47.516;8.596;2023-03-31T17:00:31;10.60;99.90
61253;DHT22;47127;47.516;8.596;2023-03-31T17:02:59;10.60;99.90
61253;DHT22;47127;47.516;8.596;2023-03-31T17:05:26;10.60;99.90
61253;DHT22;47127;47.516;8.596;2023-03-31T17:07:52;10.70;99.90
61253;DHT22;47127;47.516;8.596;2023-03-31T17:10:18;10.70;99.90
61253;DHT22;47127;47.516;8.596;2023-03-31T17:12:44;10.70;99.90
61253;DHT22;47127;47.516;8.596;2023-03-31T17:15:10;10.60;99.90
61253;DHT22;47127;47.516;8.596;2023-03-31T17:17:36;10.60;99.90
61253;DHT22;47127;47.516;8.596;2023-03-31T17:20:06;10.70;99.90
61253;DHT22;47127;47.516;8.596;2023-03-31T17:22:33;10.70;99.90
61253;DHT22;47127;47.516;8.596;2023-03-31T17:24:59;10.70;99.90
61253;DHT22;47127;47.516;8.596;2023-03-31T17:27:25;10.60;99.90
61253;DHT22;47127;47.516;8.596;2023-03-31T17:29:52;10.60;99.90
61253;DHT22;47127;47.516;8.596;2023-03-31T17:32:18;10.60;99.90
61253;DHT22;47127;47.516;8.596;2023-03-31T17:34:44;10.60;99.90
61253;DHT22;47127;47.516;8.596;2023-03-31T17:37:12;10.60;99.90
61253;DHT22;47127;47.516;8.596;2023-03-31T17:39:38;10.70;99.90
61253;DHT22;47127;47.516;8.596;2023-03-31T17:42:04;10.70;99.90
61253;DHT22;47127;47.516;8.596;2023-03-31T17:44:30;10.60;99.90
61253;DHT22;47127;47.516;8.596;2023-03-31T17:46:56;10.70;99.90
61253;DHT22;47127;47.516;8.596;2023-03-31T17:49:22;10.70;99.90
61253;DHT22;47127;47.516;8.596;2023-03-31T17:51:48;10.70;99.90
61253;DHT22;47127;47.516;8.596;2023-03-31T17:54:14;10.60;99.90
61253;DHT22;47127;47.516;8.596;2023-03-31T17:56:39;10.60;99.90
61253;DHT22;47127;47.516;8.596;2023-03-31T17:59:06;10.60;99.90
61253;DHT22;47127;47.516;8.596;2023-03-31T18:01:32;10.60;99.90
61253;DHT22;47127;47.516;8.596;2023-03-31T18:03:57;10.60;99.90
61253;DHT22;47127;47.516;8.596;2023-03-31T18:06:23;10.60;99.90
61253;DHT22;47127;47.516;8.596;2023-03-31T18:08:49;10.60;99.90
61253;DHT22;47127;47.516;8.596;2023-03-31T18:11:16;10.70;99.90
61253;DHT22;47127;47.516;8.596;2023-03-31T18:13:42;10.80;99.90
61253;DHT22;47127;47.516;8.596;2023-03-31T18:16:09;10.90;99.90
61253;DHT22;47127;47.516;8.596;2023-03-31T18:18:37;10.90;99.90
61253;DHT22;47127;47.516;8.596;2023-03-31T18:21:05;11.00;99.90
61253;DHT22;47127;47.516;8.596;2023-03-31T18:23:30;10.90;99.90
61253;DHT22;47127;47.516;8.596;2023-03-31T18:25:56;10.70;99.90
61253;DHT22;47127;47.516;8.596;2023-03-31T18:28:22;10.60;99.90
61253;DHT22;47127;47.516;8.596;2023-03-31T18:30:47;10.30;99.90
61253;DHT22;47127;47.516;8.596;2023-03-31T18:33:14;10.20;99.90
61253;DHT22;47127;47.516;8.596;2023-03-31T18:35:40;10.20;99.90
61253;DHT22;47127;47.516;8.596;2023-03-31T18:38:05;10.10;99.90
61253;DHT22;47127;47.516;8.596;2023-03-31T18:40:31;10.10;99.90
61253;DHT22;47127;47.516;8.596;2023-03-31T18:42:57;10.10;99.90
61253;DHT22;47127;47.516;8.596;2023-03-31T18:45:22;10.00;99.90